GFM7WT UGTB-UTAA
Flight info
| Callsign | GFM7WT |
|---|---|
| Flight time | 2h 16m |
| Altitude | 31000 |
| Route | DISKA M737 VERCA M747 SULEL N449 DUKAN B449 MAMED MAM29A |
| Aircraft | TBM9/L-SDFGRWY/S |
Departure
| Time | 2026-04-29 20:29 |
|---|---|
| Airport | Tbilisi International Airport (UGTB) |
Arrival
| Time | 2026-04-29 22:45 |
|---|---|
| Airport | Ashgabat International Airport (UTAA) |
| Time | Latitude | Longitude | Altitude | Speed | Heading |
|---|---|---|---|---|---|
| 2026-04-29 20:16 | 41.67451 | 44.95678 | 1521 ft | 0 kts | 313° |
| 2026-04-29 20:25 | 41.67455 | 44.95673 | 1521 ft | 4 kts | 313° |
| 2026-04-29 20:25 | 41.67454 | 44.95626 | 1521 ft | 7 kts | 217° |
| 2026-04-29 20:25 | 41.67412 | 44.95575 | 1518 ft | 9 kts | 224° |
| 2026-04-29 20:25 | 41.67366 | 44.95516 | 1521 ft | 8 kts | 224° |
| 2026-04-29 20:26 | 41.67321 | 44.95546 | 1519 ft | 9 kts | 133° |
| 2026-04-29 20:26 | 41.67273 | 44.95613 | 1521 ft | 11 kts | 134° |
| 2026-04-29 20:26 | 41.67213 | 44.95597 | 1517 ft | 11 kts | 224° |
| 2026-04-29 20:26 | 41.67150 | 44.95518 | 1521 ft | 14 kts | 224° |
| 2026-04-29 20:27 | 41.67066 | 44.95409 | 1521 ft | 19 kts | 224° |
| 2026-04-29 20:27 | 41.66998 | 44.95322 | 1520 ft | 21 kts | 224° |
| 2026-04-29 20:27 | 41.66869 | 44.95206 | 1520 ft | 14 kts | 155° |
| 2026-04-29 20:27 | 41.66812 | 44.95240 | 1520 ft | 5 kts | 310° |
| 2026-04-29 20:28 | 41.66821 | 44.95229 | 1520 ft | 0 kts | 316° |
| 2026-04-29 20:28 | 41.66872 | 44.95165 | 1519 ft | 36 kts | 316° |
| 2026-04-29 20:28 | 41.67212 | 44.94741 | 1524 ft | 95 kts | 316° |
| 2026-04-29 20:28 | 41.67765 | 44.94073 | 1835 ft | 115 kts | 318° |
| 2026-04-29 20:29 | 41.68348 | 44.93342 | 2399 ft | 115 kts | 316° |
| 2026-04-29 20:29 | 41.68933 | 44.92591 | 3000 ft | 122 kts | 317° |
| 2026-04-29 20:29 | 41.69618 | 44.91740 | 3295 ft | 147 kts | 318° |
| 2026-04-29 20:29 | 41.70434 | 44.90733 | 3506 ft | 168 kts | 317° |
| 2026-04-29 20:30 | 41.71293 | 44.89661 | 3997 ft | 169 kts | 316° |
| 2026-04-29 20:30 | 41.72152 | 44.88581 | 4503 ft | 170 kts | 316° |
| 2026-04-29 20:30 | 41.73020 | 44.87489 | 4984 ft | 172 kts | 315° |
| 2026-04-29 20:30 | 41.73901 | 44.86385 | 5451 ft | 174 kts | 315° |
| 2026-04-29 20:31 | 41.74788 | 44.85271 | 5926 ft | 175 kts | 315° |
| 2026-04-29 20:31 | 41.75684 | 44.84145 | 6385 ft | 177 kts | 315° |
| 2026-04-29 20:31 | 41.76667 | 44.83143 | 6847 ft | 181 kts | 335° |
| 2026-04-29 20:31 | 41.77920 | 44.83012 | 7293 ft | 190 kts | 8° |
| 2026-04-29 20:32 | 41.79083 | 44.83928 | 7755 ft | 199 kts | 46° |
| 2026-04-29 20:32 | 41.79613 | 44.85637 | 8213 ft | 205 kts | 86° |
| 2026-04-29 20:32 | 41.79245 | 44.87449 | 8668 ft | 206 kts | 126° |
| 2026-04-29 20:32 | 41.78569 | 44.88319 | 8968 ft | 204 kts | 147° |
| 2026-04-29 20:33 | 41.76969 | 44.89665 | 9556 ft | 206 kts | 150° |
| 2026-04-29 20:33 | 41.75744 | 44.90675 | 10016 ft | 207 kts | 150° |
| 2026-04-29 20:33 | 41.74512 | 44.91703 | 10449 ft | 209 kts | 150° |
| 2026-04-29 20:33 | 41.73271 | 44.92734 | 10866 ft | 210 kts | 150° |
| 2026-04-29 20:34 | 41.72030 | 44.93785 | 11283 ft | 211 kts | 150° |
| 2026-04-29 20:34 | 41.70779 | 44.94832 | 11688 ft | 213 kts | 150° |
| 2026-04-29 20:34 | 41.69516 | 44.95884 | 12097 ft | 214 kts | 150° |
| 2026-04-29 20:34 | 41.68249 | 44.96945 | 12507 ft | 216 kts | 150° |
| 2026-04-29 20:35 | 41.66974 | 44.98009 | 12919 ft | 217 kts | 151° |
| 2026-04-29 20:35 | 41.65684 | 44.99086 | 13333 ft | 218 kts | 151° |
| 2026-04-29 20:35 | 41.64390 | 45.00166 | 13742 ft | 220 kts | 151° |
| 2026-04-29 20:35 | 41.63087 | 45.01254 | 14119 ft | 221 kts | 151° |
| 2026-04-29 20:36 | 41.61776 | 45.02347 | 14483 ft | 223 kts | 151° |
| 2026-04-29 20:36 | 41.60469 | 45.03471 | 14839 ft | 225 kts | 146° |
| 2026-04-29 20:36 | 41.59407 | 45.05028 | 15194 ft | 229 kts | 127° |
| 2026-04-29 20:36 | 41.58487 | 45.06775 | 15576 ft | 230 kts | 128° |
| 2026-04-29 20:37 | 41.57548 | 45.08515 | 15927 ft | 232 kts | 128° |
| 2026-04-29 20:37 | 41.56922 | 45.09677 | 16161 ft | 233 kts | 128° |
| 2026-04-29 20:37 | 41.55975 | 45.11442 | 16528 ft | 235 kts | 128° |
| 2026-04-29 20:37 | 41.55023 | 45.13218 | 16884 ft | 236 kts | 128° |
| 2026-04-29 20:38 | 41.53749 | 45.15591 | 17366 ft | 238 kts | 128° |
| 2026-04-29 20:38 | 41.52782 | 45.17389 | 17733 ft | 239 kts | 128° |
| 2026-04-29 20:38 | 41.51808 | 45.19200 | 18100 ft | 241 kts | 128° |
| 2026-04-29 20:38 | 41.50828 | 45.21023 | 18462 ft | 242 kts | 129° |
| 2026-04-29 20:39 | 41.50160 | 45.22261 | 18674 ft | 243 kts | 129° |
| 2026-04-29 20:39 | 41.49170 | 45.24098 | 18994 ft | 245 kts | 129° |
| 2026-04-29 20:39 | 41.48174 | 45.25948 | 19310 ft | 246 kts | 129° |
| 2026-04-29 20:39 | 41.47171 | 45.27807 | 19621 ft | 248 kts | 129° |
| 2026-04-29 20:40 | 41.46134 | 45.29644 | 19935 ft | 247 kts | 135° |
| 2026-04-29 20:40 | 41.44957 | 45.31322 | 20238 ft | 249 kts | 137° |
| 2026-04-29 20:40 | 41.43784 | 45.32987 | 20548 ft | 250 kts | 137° |
| 2026-04-29 20:40 | 41.42597 | 45.34690 | 20857 ft | 252 kts | 136° |
| 2026-04-29 20:41 | 41.41402 | 45.36407 | 21170 ft | 253 kts | 137° |
| 2026-04-29 20:41 | 41.40199 | 45.38129 | 21487 ft | 254 kts | 137° |
| 2026-04-29 20:41 | 41.38985 | 45.39862 | 21809 ft | 256 kts | 137° |
| 2026-04-29 20:41 | 41.37769 | 45.41600 | 22123 ft | 257 kts | 137° |
| 2026-04-29 20:42 | 41.36544 | 45.43352 | 22437 ft | 259 kts | 137° |
| 2026-04-29 20:42 | 41.35311 | 45.45112 | 22752 ft | 261 kts | 137° |
| 2026-04-29 20:42 | 41.34072 | 45.46880 | 23063 ft | 262 kts | 137° |
| 2026-04-29 20:42 | 41.32824 | 45.48659 | 23367 ft | 264 kts | 137° |
| 2026-04-29 20:43 | 41.31569 | 45.50449 | 23692 ft | 265 kts | 137° |
| 2026-04-29 20:43 | 41.30307 | 45.52248 | 24033 ft | 266 kts | 137° |
| 2026-04-29 20:43 | 41.29056 | 45.54027 | 24366 ft | 267 kts | 138° |
| 2026-04-29 20:43 | 41.27781 | 45.55840 | 24704 ft | 268 kts | 138° |
| 2026-04-29 20:44 | 41.26506 | 45.57652 | 25035 ft | 269 kts | 138° |
| 2026-04-29 20:44 | 41.25225 | 45.59471 | 25364 ft | 270 kts | 139° |
| 2026-04-29 20:44 | 41.23938 | 45.61299 | 25698 ft | 271 kts | 139° |
| 2026-04-29 20:44 | 41.22646 | 45.63132 | 26038 ft | 272 kts | 139° |
| 2026-04-29 20:45 | 41.21454 | 45.65114 | 26353 ft | 278 kts | 127° |
| 2026-04-29 20:45 | 41.20580 | 45.67432 | 26685 ft | 284 kts | 115° |
| 2026-04-29 20:45 | 41.19936 | 45.69924 | 27016 ft | 286 kts | 113° |
| 2026-04-29 20:45 | 41.19278 | 45.72417 | 27340 ft | 287 kts | 114° |
| 2026-04-29 20:46 | 41.18613 | 45.74921 | 27665 ft | 289 kts | 114° |
| 2026-04-29 20:46 | 41.17949 | 45.77442 | 27985 ft | 290 kts | 114° |
| 2026-04-29 20:46 | 41.17283 | 45.79978 | 28300 ft | 292 kts | 114° |
| 2026-04-29 20:46 | 41.16611 | 45.82520 | 28604 ft | 293 kts | 115° |
| 2026-04-29 20:47 | 41.15933 | 45.85084 | 28909 ft | 295 kts | 115° |
| 2026-04-29 20:47 | 41.15253 | 45.87656 | 29210 ft | 296 kts | 115° |
| 2026-04-29 20:47 | 41.14568 | 45.90241 | 29495 ft | 298 kts | 115° |
| 2026-04-29 20:47 | 41.13879 | 45.92841 | 29781 ft | 299 kts | 115° |
| 2026-04-29 20:48 | 41.13187 | 45.95448 | 30053 ft | 301 kts | 115° |
| 2026-04-29 20:48 | 41.12490 | 45.98070 | 30301 ft | 302 kts | 115° |
| 2026-04-29 20:48 | 41.11789 | 46.00707 | 30527 ft | 303 kts | 115° |
| 2026-04-29 20:48 | 41.11096 | 46.03311 | 30744 ft | 304 kts | 115° |
| 2026-04-29 20:49 | 41.10391 | 46.05957 | 30964 ft | 305 kts | 115° |
| 2026-04-29 20:49 | 41.09681 | 46.08616 | 31121 ft | 308 kts | 115° |
| 2026-04-29 20:49 | 41.08209 | 46.14107 | 31128 ft | 322 kts | 115° |
| 2026-04-29 20:50 | 41.06688 | 46.19789 | 31132 ft | 331 kts | 115° |
| 2026-04-29 20:50 | 41.05134 | 46.25578 | 31131 ft | 336 kts | 115° |
| 2026-04-29 20:51 | 41.03557 | 46.31448 | 31131 ft | 340 kts | 114° |
| 2026-04-29 20:51 | 41.01985 | 46.37362 | 31132 ft | 341 kts | 114° |
| 2026-04-29 20:52 | 41.00395 | 46.43300 | 31130 ft | 342 kts | 114° |
| 2026-04-29 20:52 | 40.98815 | 46.49200 | 31126 ft | 342 kts | 114° |
| 2026-04-29 20:53 | 40.97222 | 46.55128 | 31124 ft | 341 kts | 114° |
| 2026-04-29 20:53 | 40.95629 | 46.61043 | 31123 ft | 341 kts | 114° |
| 2026-04-29 20:54 | 40.93237 | 46.69897 | 31124 ft | 340 kts | 114° |
| 2026-04-29 20:55 | 40.91644 | 46.75780 | 31124 ft | 340 kts | 114° |
| 2026-04-29 20:55 | 40.90048 | 46.81655 | 31129 ft | 339 kts | 114° |
| 2026-04-29 20:56 | 40.88444 | 46.87530 | 31125 ft | 339 kts | 114° |
| 2026-04-29 20:56 | 40.86840 | 46.93381 | 31125 ft | 339 kts | 113° |
| 2026-04-29 20:57 | 40.85235 | 46.99230 | 31123 ft | 338 kts | 113° |
| 2026-04-29 20:57 | 40.83638 | 47.05031 | 31128 ft | 338 kts | 113° |
| 2026-04-29 20:58 | 40.82031 | 47.10860 | 31123 ft | 338 kts | 113° |
| 2026-04-29 20:58 | 40.80418 | 47.16691 | 31124 ft | 338 kts | 113° |
| 2026-04-29 20:59 | 40.78790 | 47.22514 | 31123 ft | 338 kts | 114° |
| 2026-04-29 20:59 | 40.77162 | 47.28342 | 31123 ft | 338 kts | 113° |
| 2026-04-29 21:00 | 40.75541 | 47.34127 | 31121 ft | 338 kts | 114° |
| 2026-04-29 21:00 | 40.73904 | 47.39955 | 31120 ft | 339 kts | 114° |
| 2026-04-29 21:01 | 40.72267 | 47.45795 | 31123 ft | 339 kts | 113° |
| 2026-04-29 21:01 | 40.70626 | 47.51633 | 31123 ft | 339 kts | 114° |
| 2026-04-29 21:02 | 40.68984 | 47.57461 | 31121 ft | 339 kts | 114° |
| 2026-04-29 21:02 | 40.67338 | 47.63290 | 31121 ft | 339 kts | 114° |
| 2026-04-29 21:03 | 40.65697 | 47.69089 | 31119 ft | 340 kts | 114° |
| 2026-04-29 21:03 | 40.64043 | 47.74921 | 31121 ft | 340 kts | 114° |
| 2026-04-29 21:04 | 40.62384 | 47.80753 | 31123 ft | 340 kts | 114° |
| 2026-04-29 21:04 | 40.60722 | 47.86586 | 31127 ft | 340 kts | 114° |
| 2026-04-29 21:05 | 40.59057 | 47.92414 | 31123 ft | 340 kts | 114° |
| 2026-04-29 21:05 | 40.57505 | 47.98303 | 31120 ft | 341 kts | 111° |
| 2026-04-29 21:06 | 40.56057 | 48.04241 | 31120 ft | 341 kts | 111° |
| 2026-04-29 21:06 | 40.54596 | 48.10166 | 31120 ft | 340 kts | 111° |
| 2026-04-29 21:07 | 40.53139 | 48.16083 | 31125 ft | 340 kts | 111° |
| 2026-04-29 21:07 | 40.51693 | 48.21959 | 31121 ft | 340 kts | 111° |
| 2026-04-29 21:08 | 40.50236 | 48.27863 | 31123 ft | 340 kts | 111° |
| 2026-04-29 21:08 | 40.48776 | 48.33766 | 31126 ft | 340 kts | 111° |
| 2026-04-29 21:09 | 40.47312 | 48.39667 | 31125 ft | 339 kts | 111° |
| 2026-04-29 21:09 | 40.45846 | 48.45565 | 31123 ft | 339 kts | 111° |
| 2026-04-29 21:10 | 40.44376 | 48.51462 | 31125 ft | 340 kts | 111° |
| 2026-04-29 21:10 | 40.42905 | 48.57352 | 31132 ft | 340 kts | 111° |
| 2026-04-29 21:11 | 40.41423 | 48.63265 | 31125 ft | 341 kts | 111° |
| 2026-04-29 21:11 | 40.39937 | 48.69186 | 31131 ft | 342 kts | 111° |
| 2026-04-29 21:12 | 40.38457 | 48.75065 | 31132 ft | 341 kts | 111° |
| 2026-04-29 21:12 | 40.36967 | 48.80972 | 31126 ft | 341 kts | 111° |
| 2026-04-29 21:13 | 40.35476 | 48.86865 | 31130 ft | 340 kts | 111° |
| 2026-04-29 21:13 | 40.33985 | 48.92747 | 31128 ft | 340 kts | 112° |
| 2026-04-29 21:14 | 40.32492 | 48.98619 | 31128 ft | 340 kts | 112° |
| 2026-04-29 21:14 | 40.30997 | 49.04488 | 31131 ft | 339 kts | 112° |
| 2026-04-29 21:15 | 40.29487 | 49.10342 | 31126 ft | 339 kts | 112° |
| 2026-04-29 21:15 | 40.27973 | 49.16186 | 31127 ft | 339 kts | 112° |
| 2026-04-29 21:16 | 40.26459 | 49.22024 | 31125 ft | 338 kts | 112° |
| 2026-04-29 21:16 | 40.24953 | 49.27854 | 31128 ft | 338 kts | 112° |
| 2026-04-29 21:17 | 40.23448 | 49.33677 | 31130 ft | 337 kts | 112° |
| 2026-04-29 21:17 | 40.21950 | 49.39451 | 31130 ft | 337 kts | 112° |
| 2026-04-29 21:18 | 40.20441 | 49.45259 | 31127 ft | 337 kts | 112° |
| 2026-04-29 21:18 | 40.18984 | 49.51087 | 31121 ft | 338 kts | 107° |
| 2026-04-29 21:19 | 40.18361 | 49.57218 | 31123 ft | 340 kts | 100° |
| 2026-04-29 21:19 | 40.17788 | 49.63361 | 31121 ft | 340 kts | 100° |
| 2026-04-29 21:20 | 40.17229 | 49.69500 | 31123 ft | 340 kts | 100° |
| 2026-04-29 21:20 | 40.16659 | 49.75640 | 31119 ft | 340 kts | 100° |
| 2026-04-29 21:21 | 40.16093 | 49.81733 | 31119 ft | 340 kts | 100° |
| 2026-04-29 21:21 | 40.15518 | 49.87871 | 31117 ft | 340 kts | 100° |
| 2026-04-29 21:22 | 40.14941 | 49.94010 | 31114 ft | 340 kts | 101° |
| 2026-04-29 21:22 | 40.14361 | 50.00134 | 31113 ft | 339 kts | 101° |
| 2026-04-29 21:23 | 40.13779 | 50.06250 | 31111 ft | 339 kts | 101° |
| 2026-04-29 21:23 | 40.13193 | 50.12370 | 31110 ft | 339 kts | 101° |
| 2026-04-29 21:24 | 40.12605 | 50.18478 | 31110 ft | 339 kts | 101° |
| 2026-04-29 21:24 | 40.12013 | 50.24589 | 31111 ft | 339 kts | 101° |
| 2026-04-29 21:25 | 40.11419 | 50.30688 | 31111 ft | 338 kts | 101° |
| 2026-04-29 21:25 | 40.10923 | 50.35756 | 31108 ft | 338 kts | 101° |
| 2026-04-29 21:26 | 40.10324 | 50.41849 | 31111 ft | 338 kts | 101° |
| 2026-04-29 21:26 | 40.09722 | 50.47936 | 31109 ft | 338 kts | 101° |
| 2026-04-29 21:27 | 40.09117 | 50.54020 | 31114 ft | 338 kts | 101° |
| 2026-04-29 21:27 | 40.08509 | 50.60102 | 31111 ft | 338 kts | 102° |
| 2026-04-29 21:28 | 40.07900 | 50.66158 | 31110 ft | 337 kts | 102° |
| 2026-04-29 21:28 | 40.07284 | 50.72258 | 31110 ft | 337 kts | 102° |
| 2026-04-29 21:29 | 40.06667 | 50.78329 | 31113 ft | 337 kts | 102° |
| 2026-04-29 21:29 | 40.06051 | 50.84363 | 31109 ft | 337 kts | 102° |
| 2026-04-29 21:30 | 40.05428 | 50.90424 | 31107 ft | 337 kts | 102° |
| 2026-04-29 21:30 | 40.04804 | 50.96478 | 31108 ft | 337 kts | 102° |
| 2026-04-29 21:31 | 40.04175 | 51.02535 | 31110 ft | 336 kts | 102° |
| 2026-04-29 21:31 | 40.03544 | 51.08586 | 31105 ft | 336 kts | 102° |
| 2026-04-29 21:32 | 40.02910 | 51.14632 | 31104 ft | 336 kts | 102° |
| 2026-04-29 21:32 | 40.02274 | 51.20673 | 31105 ft | 336 kts | 103° |
| 2026-04-29 21:33 | 40.01634 | 51.26711 | 31103 ft | 336 kts | 103° |
| 2026-04-29 21:33 | 40.00992 | 51.32745 | 31100 ft | 336 kts | 103° |
| 2026-04-29 21:34 | 40.00345 | 51.38786 | 31102 ft | 336 kts | 103° |
| 2026-04-29 21:34 | 39.99697 | 51.44818 | 31096 ft | 336 kts | 103° |
| 2026-04-29 21:35 | 39.98982 | 51.50836 | 31105 ft | 333 kts | 109° |
| 2026-04-29 21:35 | 39.97881 | 51.56669 | 31102 ft | 334 kts | 109° |
| 2026-04-29 21:36 | 39.96793 | 51.62559 | 31095 ft | 334 kts | 109° |
| 2026-04-29 21:36 | 39.95688 | 51.68439 | 31094 ft | 334 kts | 109° |
| 2026-04-29 21:37 | 39.94585 | 51.74328 | 31093 ft | 334 kts | 110° |
| 2026-04-29 21:37 | 39.93477 | 51.80214 | 31090 ft | 334 kts | 110° |
| 2026-04-29 21:38 | 39.92366 | 51.86102 | 31090 ft | 334 kts | 110° |
| 2026-04-29 21:38 | 39.91252 | 51.91984 | 31092 ft | 335 kts | 110° |
| 2026-04-29 21:39 | 39.90135 | 51.97868 | 31088 ft | 335 kts | 110° |
| 2026-04-29 21:39 | 39.89021 | 52.03716 | 31085 ft | 335 kts | 110° |
| 2026-04-29 21:40 | 39.87897 | 52.09600 | 31085 ft | 335 kts | 110° |
| 2026-04-29 21:40 | 39.86771 | 52.15479 | 31088 ft | 334 kts | 110° |
| 2026-04-29 21:41 | 39.85642 | 52.21350 | 31090 ft | 334 kts | 111° |
| 2026-04-29 21:41 | 39.84511 | 52.27220 | 31092 ft | 334 kts | 111° |
| 2026-04-29 21:42 | 39.83377 | 52.33086 | 31088 ft | 334 kts | 111° |
| 2026-04-29 21:42 | 39.82242 | 52.38943 | 31086 ft | 334 kts | 111° |
| 2026-04-29 21:43 | 39.81103 | 52.44802 | 31084 ft | 334 kts | 111° |
| 2026-04-29 21:43 | 39.79962 | 52.50650 | 31084 ft | 334 kts | 111° |
| 2026-04-29 21:44 | 39.78818 | 52.56501 | 31080 ft | 334 kts | 111° |
| 2026-04-29 21:44 | 39.77671 | 52.62345 | 31081 ft | 334 kts | 111° |
| 2026-04-29 21:45 | 39.76522 | 52.68189 | 31084 ft | 333 kts | 111° |
| 2026-04-29 21:45 | 39.75371 | 52.74024 | 31082 ft | 333 kts | 111° |
| 2026-04-29 21:46 | 39.74224 | 52.79819 | 31079 ft | 333 kts | 111° |
| 2026-04-29 21:46 | 39.73069 | 52.85656 | 31081 ft | 333 kts | 111° |
| 2026-04-29 21:47 | 39.71946 | 52.91502 | 31080 ft | 333 kts | 111° |
| 2026-04-29 21:47 | 39.70808 | 52.97336 | 31076 ft | 333 kts | 111° |
| 2026-04-29 21:48 | 39.69674 | 53.03161 | 31077 ft | 333 kts | 111° |
| 2026-04-29 21:48 | 39.68532 | 53.08997 | 31075 ft | 333 kts | 111° |
| 2026-04-29 21:49 | 39.67389 | 53.14827 | 31076 ft | 333 kts | 111° |
| 2026-04-29 21:49 | 39.66251 | 53.20614 | 31075 ft | 333 kts | 111° |
| 2026-04-29 21:50 | 39.65101 | 53.26442 | 31073 ft | 333 kts | 111° |
| 2026-04-29 21:50 | 39.63949 | 53.32267 | 31073 ft | 333 kts | 111° |
| 2026-04-29 21:51 | 39.62792 | 53.38099 | 31074 ft | 334 kts | 111° |
| 2026-04-29 21:51 | 39.61051 | 53.46846 | 31070 ft | 334 kts | 111° |
| 2026-04-29 21:52 | 39.59884 | 53.52683 | 31064 ft | 334 kts | 111° |
| 2026-04-29 21:52 | 39.58715 | 53.58519 | 31065 ft | 334 kts | 111° |
| 2026-04-29 21:53 | 39.57550 | 53.64316 | 31066 ft | 334 kts | 111° |
| 2026-04-29 21:53 | 39.56377 | 53.70137 | 31064 ft | 334 kts | 111° |
| 2026-04-29 21:54 | 39.55201 | 53.75954 | 31069 ft | 333 kts | 111° |
| 2026-04-29 21:54 | 39.54023 | 53.81771 | 31068 ft | 333 kts | 111° |
| 2026-04-29 21:55 | 39.52842 | 53.87576 | 31070 ft | 333 kts | 111° |
| 2026-04-29 21:55 | 39.51661 | 53.93375 | 31072 ft | 333 kts | 111° |
| 2026-04-29 21:56 | 39.50476 | 53.99175 | 31071 ft | 333 kts | 111° |
| 2026-04-29 21:56 | 39.49285 | 54.04972 | 31073 ft | 333 kts | 111° |
| 2026-04-29 21:57 | 39.48076 | 54.10752 | 31069 ft | 333 kts | 111° |
| 2026-04-29 21:57 | 39.46879 | 54.16499 | 31070 ft | 332 kts | 111° |
| 2026-04-29 21:58 | 39.45670 | 54.22270 | 31067 ft | 332 kts | 111° |
| 2026-04-29 21:58 | 39.44459 | 54.28041 | 31065 ft | 332 kts | 111° |
| 2026-04-29 21:59 | 39.43245 | 54.33811 | 31065 ft | 332 kts | 111° |
| 2026-04-29 21:59 | 39.42027 | 54.39586 | 31064 ft | 332 kts | 111° |
| 2026-04-29 22:00 | 39.40817 | 54.45302 | 31066 ft | 332 kts | 111° |
| 2026-04-29 22:00 | 39.39592 | 54.51075 | 31063 ft | 332 kts | 111° |
| 2026-04-29 22:01 | 39.38381 | 54.56770 | 31062 ft | 332 kts | 111° |
| 2026-04-29 22:01 | 39.37139 | 54.62593 | 31061 ft | 332 kts | 111° |
| 2026-04-29 22:02 | 39.35907 | 54.68353 | 31056 ft | 332 kts | 111° |
| 2026-04-29 22:02 | 39.34673 | 54.74105 | 31058 ft | 332 kts | 112° |
| 2026-04-29 22:03 | 39.33439 | 54.79855 | 31069 ft | 331 kts | 112° |
| 2026-04-29 22:03 | 39.32201 | 54.85587 | 31064 ft | 331 kts | 112° |
| 2026-04-29 22:04 | 39.30964 | 54.91316 | 31061 ft | 331 kts | 112° |
| 2026-04-29 22:04 | 39.29721 | 54.97048 | 31055 ft | 331 kts | 112° |
| 2026-04-29 22:05 | 39.28483 | 55.02748 | 31055 ft | 331 kts | 112° |
| 2026-04-29 22:06 | 39.26613 | 55.11330 | 31051 ft | 331 kts | 112° |
| 2026-04-29 22:06 | 39.25376 | 55.16983 | 31050 ft | 330 kts | 112° |
| 2026-04-29 22:07 | 39.24114 | 55.22739 | 31053 ft | 330 kts | 112° |
| 2026-04-29 22:07 | 39.22863 | 55.28434 | 31055 ft | 329 kts | 112° |
| 2026-04-29 22:08 | 39.21611 | 55.34114 | 31054 ft | 329 kts | 112° |
| 2026-04-29 22:08 | 39.20355 | 55.39797 | 31055 ft | 329 kts | 112° |
| 2026-04-29 22:09 | 39.19327 | 55.44442 | 31054 ft | 329 kts | 112° |
| 2026-04-29 22:09 | 39.18052 | 55.50186 | 31054 ft | 329 kts | 111° |
| 2026-04-29 22:10 | 39.16789 | 55.55861 | 31050 ft | 329 kts | 111° |
| 2026-04-29 22:10 | 39.15522 | 55.61531 | 31050 ft | 329 kts | 111° |
| 2026-04-29 22:11 | 39.14250 | 55.67203 | 31053 ft | 330 kts | 111° |
| 2026-04-29 22:11 | 39.13189 | 55.71930 | 31047 ft | 330 kts | 111° |
| 2026-04-29 22:12 | 39.11910 | 55.77609 | 31049 ft | 330 kts | 111° |
| 2026-04-29 22:12 | 39.10629 | 55.83289 | 31050 ft | 330 kts | 111° |
| 2026-04-29 22:13 | 39.09343 | 55.88963 | 31044 ft | 330 kts | 111° |
| 2026-04-29 22:13 | 39.08058 | 55.94631 | 31048 ft | 330 kts | 111° |
| 2026-04-29 22:14 | 39.06771 | 56.00290 | 31042 ft | 329 kts | 111° |
| 2026-04-29 22:14 | 39.05489 | 56.05915 | 31041 ft | 330 kts | 111° |
| 2026-04-29 22:15 | 39.04194 | 56.11580 | 31038 ft | 330 kts | 111° |
| 2026-04-29 22:15 | 39.02898 | 56.17238 | 31043 ft | 330 kts | 111° |
| 2026-04-29 22:16 | 39.01598 | 56.22897 | 31042 ft | 330 kts | 111° |
| 2026-04-29 22:16 | 39.00294 | 56.28561 | 31041 ft | 330 kts | 111° |
| 2026-04-29 22:17 | 38.98828 | 56.34132 | 31043 ft | 329 kts | 114° |
| 2026-04-29 22:17 | 38.97309 | 56.39683 | 31039 ft | 330 kts | 113° |
| 2026-04-29 22:18 | 38.95786 | 56.45242 | 31037 ft | 330 kts | 113° |
| 2026-04-29 22:18 | 38.94263 | 56.50778 | 31035 ft | 331 kts | 113° |
| 2026-04-29 22:19 | 38.92728 | 56.56352 | 31030 ft | 331 kts | 113° |
| 2026-04-29 22:19 | 38.91188 | 56.61931 | 31032 ft | 332 kts | 113° |
| 2026-04-29 22:20 | 38.89644 | 56.67516 | 31030 ft | 332 kts | 113° |
| 2026-04-29 22:20 | 38.88094 | 56.73108 | 31029 ft | 332 kts | 113° |
| 2026-04-29 22:21 | 38.85941 | 56.78165 | 31038 ft | 325 kts | 133° |
| 2026-04-29 22:21 | 38.82945 | 56.82505 | 31043 ft | 325 kts | 137° |
| 2026-04-29 22:22 | 38.79447 | 56.85990 | 31041 ft | 316 kts | 160° |
| 2026-04-29 22:22 | 38.75346 | 56.87970 | 31039 ft | 314 kts | 166° |
| 2026-04-29 22:23 | 38.71233 | 56.89760 | 31038 ft | 314 kts | 166° |
| 2026-04-29 22:23 | 38.67085 | 56.91565 | 31028 ft | 315 kts | 166° |
| 2026-04-29 22:23 | 38.65088 | 56.92763 | 31016 ft | 321 kts | 153° |
| 2026-04-29 22:24 | 38.63317 | 56.94533 | 31017 ft | 326 kts | 140° |
| 2026-04-29 22:24 | 38.61868 | 56.96796 | 31016 ft | 332 kts | 127° |
| 2026-04-29 22:24 | 38.60773 | 56.99407 | 31018 ft | 335 kts | 119° |
| 2026-04-29 22:25 | 38.58926 | 57.04888 | 31015 ft | 336 kts | 116° |
| 2026-04-29 22:25 | 38.57141 | 57.10411 | 31018 ft | 336 kts | 116° |
| 2026-04-29 22:25 | 38.56240 | 57.13193 | 30734 ft | 344 kts | 116° |
| 2026-04-29 22:26 | 38.55317 | 57.16010 | 30213 ft | 343 kts | 116° |
| 2026-04-29 22:26 | 38.54384 | 57.18814 | 29597 ft | 343 kts | 116° |
| 2026-04-29 22:26 | 38.53441 | 57.21619 | 28962 ft | 344 kts | 116° |
| 2026-04-29 22:26 | 38.52496 | 57.24425 | 28344 ft | 344 kts | 116° |
| 2026-04-29 22:27 | 38.51550 | 57.27234 | 27741 ft | 345 kts | 116° |
| 2026-04-29 22:27 | 38.50603 | 57.30046 | 27150 ft | 345 kts | 116° |
| 2026-04-29 22:27 | 38.49656 | 57.32863 | 26572 ft | 345 kts | 116° |
| 2026-04-29 22:27 | 38.48721 | 57.35647 | 26010 ft | 346 kts | 116° |
| 2026-04-29 22:28 | 38.47776 | 57.38465 | 25453 ft | 346 kts | 116° |
| 2026-04-29 22:28 | 38.46830 | 57.41289 | 24909 ft | 346 kts | 116° |
| 2026-04-29 22:28 | 38.45886 | 57.44112 | 24365 ft | 346 kts | 116° |
| 2026-04-29 22:28 | 38.44944 | 57.46933 | 23845 ft | 346 kts | 116° |
| 2026-04-29 22:29 | 38.43998 | 57.49750 | 23278 ft | 346 kts | 117° |
| 2026-04-29 22:29 | 38.42961 | 57.52525 | 22662 ft | 346 kts | 121° |
| 2026-04-29 22:29 | 38.41806 | 57.55218 | 22064 ft | 346 kts | 123° |
| 2026-04-29 22:29 | 38.40613 | 57.57892 | 21473 ft | 348 kts | 123° |
| 2026-04-29 22:30 | 38.39404 | 57.60570 | 20890 ft | 348 kts | 124° |
| 2026-04-29 22:30 | 38.38192 | 57.63241 | 20327 ft | 348 kts | 124° |
| 2026-04-29 22:30 | 38.36983 | 57.65909 | 19769 ft | 347 kts | 124° |
| 2026-04-29 22:30 | 38.35781 | 57.68570 | 19276 ft | 345 kts | 123° |
| 2026-04-29 22:31 | 38.34608 | 57.71173 | 18812 ft | 342 kts | 123° |
| 2026-04-29 22:31 | 38.33427 | 57.73799 | 18346 ft | 340 kts | 123° |
| 2026-04-29 22:31 | 38.32254 | 57.76409 | 17817 ft | 338 kts | 123° |
| 2026-04-29 22:31 | 38.31089 | 57.79006 | 17289 ft | 336 kts | 123° |
| 2026-04-29 22:32 | 38.29936 | 57.81579 | 16778 ft | 333 kts | 123° |
| 2026-04-29 22:32 | 38.28792 | 57.84136 | 16271 ft | 331 kts | 123° |
| 2026-04-29 22:32 | 38.27792 | 57.86369 | 15833 ft | 328 kts | 123° |
| 2026-04-29 22:32 | 38.26665 | 57.88887 | 15332 ft | 326 kts | 123° |
| 2026-04-29 22:33 | 38.25549 | 57.91377 | 14855 ft | 323 kts | 123° |
| 2026-04-29 22:33 | 38.24438 | 57.93855 | 14377 ft | 321 kts | 123° |
| 2026-04-29 22:33 | 38.23333 | 57.96312 | 13912 ft | 318 kts | 123° |
| 2026-04-29 22:33 | 38.22235 | 57.98747 | 13400 ft | 316 kts | 123° |
| 2026-04-29 22:34 | 38.21158 | 58.01131 | 12890 ft | 313 kts | 123° |
| 2026-04-29 22:34 | 38.20068 | 58.03511 | 12383 ft | 310 kts | 124° |
| 2026-04-29 22:34 | 38.18950 | 58.05827 | 12013 ft | 304 kts | 125° |
| 2026-04-29 22:34 | 38.17882 | 58.08112 | 11705 ft | 299 kts | 123° |
| 2026-04-29 22:35 | 38.16858 | 58.10369 | 11575 ft | 290 kts | 123° |
| 2026-04-29 22:35 | 38.15837 | 58.12581 | 11275 ft | 291 kts | 124° |
| 2026-04-29 22:35 | 38.14795 | 58.14796 | 10899 ft | 292 kts | 124° |
| 2026-04-29 22:35 | 38.13760 | 58.17023 | 10515 ft | 292 kts | 123° |
| 2026-04-29 22:36 | 38.12733 | 58.19249 | 10123 ft | 291 kts | 123° |
| 2026-04-29 22:36 | 38.11703 | 58.21462 | 9692 ft | 290 kts | 124° |
| 2026-04-29 22:36 | 38.10685 | 58.23653 | 9311 ft | 286 kts | 123° |
| 2026-04-29 22:36 | 38.09675 | 58.25826 | 8934 ft | 284 kts | 123° |
| 2026-04-29 22:37 | 38.08675 | 58.27971 | 8558 ft | 281 kts | 123° |
| 2026-04-29 22:37 | 38.07686 | 58.30095 | 8188 ft | 279 kts | 123° |
| 2026-04-29 22:37 | 38.06715 | 58.32180 | 7828 ft | 276 kts | 123° |
| 2026-04-29 22:37 | 38.05741 | 58.34264 | 7464 ft | 273 kts | 123° |
| 2026-04-29 22:38 | 38.04777 | 58.36328 | 7101 ft | 271 kts | 123° |
| 2026-04-29 22:38 | 38.03822 | 58.38376 | 6746 ft | 268 kts | 123° |
| 2026-04-29 22:38 | 38.02874 | 58.40404 | 6391 ft | 266 kts | 123° |
| 2026-04-29 22:38 | 38.01933 | 58.42417 | 6023 ft | 264 kts | 123° |
| 2026-04-29 22:39 | 38.00994 | 58.44424 | 5674 ft | 264 kts | 122° |
| 2026-04-29 22:39 | 38.00055 | 58.46430 | 5330 ft | 265 kts | 122° |
| 2026-04-29 22:39 | 37.99113 | 58.48442 | 4982 ft | 266 kts | 122° |
| 2026-04-29 22:39 | 37.98171 | 58.50449 | 4620 ft | 261 kts | 122° |
| 2026-04-29 22:40 | 37.97249 | 58.52415 | 4276 ft | 259 kts | 122° |
| 2026-04-29 22:40 | 37.96335 | 58.54368 | 3934 ft | 254 kts | 122° |
| 2026-04-29 22:40 | 37.95173 | 58.55973 | 3614 ft | 252 kts | 148° |
| 2026-04-29 22:40 | 37.93522 | 58.56603 | 3299 ft | 251 kts | 180° |
| 2026-04-29 22:41 | 37.91865 | 58.56038 | 2989 ft | 249 kts | 213° |
| 2026-04-29 22:41 | 37.90714 | 58.54465 | 2709 ft | 245 kts | 245° |
| 2026-04-29 22:41 | 37.90421 | 58.52394 | 2504 ft | 238 kts | 278° |
| 2026-04-29 22:41 | 37.91064 | 58.50547 | 2502 ft | 228 kts | 310° |
| 2026-04-29 22:42 | 37.92053 | 58.49080 | 2489 ft | 201 kts | 305° |
| 2026-04-29 22:42 | 37.92698 | 58.47695 | 2481 ft | 166 kts | 301° |
| 2026-04-29 22:42 | 37.93242 | 58.46482 | 2314 ft | 145 kts | 301° |
| 2026-04-29 22:42 | 37.93752 | 58.45338 | 2124 ft | 158 kts | 300° |
| 2026-04-29 22:43 | 37.94314 | 58.44090 | 1915 ft | 167 kts | 300° |
| 2026-04-29 22:43 | 37.94882 | 58.42803 | 1703 ft | 165 kts | 300° |
| 2026-04-29 22:43 | 37.95428 | 58.41585 | 1483 ft | 151 kts | 300° |
| 2026-04-29 22:43 | 37.95922 | 58.40470 | 1364 ft | 138 kts | 301° |
| 2026-04-29 22:44 | 37.96384 | 58.39437 | 1247 ft | 133 kts | 300° |
| 2026-04-29 22:44 | 37.96814 | 58.38454 | 1018 ft | 123 kts | 300° |
| 2026-04-29 22:44 | 37.97225 | 58.37531 | 858 ft | 117 kts | 301° |
| 2026-04-29 22:44 | 37.97612 | 58.36680 | 728 ft | 103 kts | 300° |
| 2026-04-29 22:45 | 37.97933 | 58.35978 | 691 ft | 81 kts | 299° |
| 2026-04-29 22:45 | 37.98175 | 58.35423 | 687 ft | 59 kts | 300° |
| 2026-04-29 22:45 | 37.98324 | 58.35211 | 688 ft | 29 kts | 329° |
| 2026-04-29 22:45 | 37.98424 | 58.35138 | 688 ft | 15 kts | 329° |
| 2026-04-29 22:46 | 37.98506 | 58.35126 | 688 ft | 2 kts | 22° |
| 2026-04-29 22:46 | 37.98521 | 58.35160 | 688 ft | 8 kts | 83° |
| 2026-04-29 22:46 | 37.98501 | 58.35233 | 686 ft | 11 kts | 117° |
| 2026-04-29 22:46 | 37.98462 | 58.35325 | 685 ft | 13 kts | 117° |
| 2026-04-29 22:47 | 37.98413 | 58.35436 | 686 ft | 16 kts | 120° |
| 2026-04-29 22:47 | 37.98357 | 58.35564 | 685 ft | 18 kts | 119° |
| 2026-04-29 22:47 | 37.98291 | 58.35717 | 685 ft | 20 kts | 118° |
| 2026-04-29 22:47 | 37.98218 | 58.35882 | 687 ft | 23 kts | 121° |
| 2026-04-29 22:48 | 37.98137 | 58.36063 | 687 ft | 24 kts | 121° |
| 2026-04-29 22:48 | 37.98048 | 58.36256 | 687 ft | 26 kts | 120° |
| 2026-04-29 22:48 | 37.97972 | 58.36428 | 685 ft | 18 kts | 118° |
| 2026-04-29 22:48 | 37.97903 | 58.36575 | 687 ft | 21 kts | 121° |
| 2026-04-29 22:49 | 37.97826 | 58.36739 | 686 ft | 23 kts | 119° |
| 2026-04-29 22:49 | 37.97747 | 58.36923 | 687 ft | 25 kts | 116° |
| 2026-04-29 22:49 | 37.97660 | 58.37120 | 687 ft | 26 kts | 117° |
| 2026-04-29 22:49 | 37.97569 | 58.37331 | 685 ft | 28 kts | 119° |
| 2026-04-29 22:50 | 37.97485 | 58.37522 | 685 ft | 20 kts | 118° |
| 2026-04-29 22:50 | 37.97433 | 58.37652 | 687 ft | 14 kts | 109° |
| 2026-04-29 22:50 | 37.97438 | 58.37751 | 687 ft | 9 kts | 58° |
| 2026-04-29 22:50 | 37.97483 | 58.37794 | 687 ft | 10 kts | 31° |
| 2026-04-29 22:51 | 37.97545 | 58.37843 | 687 ft | 6 kts | 34° |
| 2026-04-29 22:51 | 37.97535 | 58.37893 | 686 ft | 6 kts | 119° |
| 2026-04-29 22:51 | 37.97514 | 58.37942 | 684 ft | 0 kts | 118° |